METAR UND TAF INFORMATION
METAR FOR VEGY
ADDS - METARS form results

(1556 UTC 19 December 2018)
Data provider http://aviationweather.gov/metar/data/
 
METAR text: VEGY 191500Z 24005KT 2500 BR NSC 14/11 Q1019
Conditions at: VEGY (GAYA , IN) observed 1500 UTC 19 December 2018
Temperature: 14.0°C (57°F)
Dewpoint: 11.0°C (52°F) [RH = 82%]
Pressure (altimeter): 30.09 inches Hg (1019.0 mb)
Winds: from the WSW (240 degrees) at 6 MPH (5 knots; 2.6 m/s)
Visibility: 1.55 miles (2.49 km)
Ceiling: at least 12,000 feet AGL
Clouds: sky clear below 12,000 feet AGL
Weather: BR  (mist)

 FLUGHAFENKARTE

 RUNWAY INFORMATION
Runway 10 Runway length 7500 ft Runway width 148 ft
Runway elevation 355 ft Runway displaced threshold 0 ft Runway heading 104
Runway 28 Runway length 7500 ft Runway width 148 ft
Runway elevation 378 ft Runway displaced threshold 245 ft Runway heading 284

 AIRPORT FREQUENCIES
Type TWR Name TWR Frequency 123.5 MHZ

 AIRPORT NEAR NAVIGATION AIDS
Type VOR-DME Name Gaya Frequency 115000 KHZ



Version 3.0.1 EDV-Wallbrecher

Powered by EDV-Wallbrecher | Virtual Airlines Manager